createdAt,value
2022-12-03T00:00:42.871Z,50.877155
2022-12-03T00:01:42.895Z,50.877178
2022-12-03T00:02:43.049Z,50.877163
2022-12-03T00:03:42.977Z,50.877167
2022-12-03T00:04:42.827Z,50.877167
2022-12-03T00:05:48.841Z,50.877174
2022-12-03T00:06:43.855Z,50.877186
2022-12-03T00:07:42.867Z,50.877186
2022-12-03T00:08:42.805Z,50.877159
2022-12-03T00:09:42.799Z,50.877129
2022-12-03T00:10:42.779Z,50.877125
2022-12-03T00:11:42.764Z,50.877113
2022-12-03T00:12:42.789Z,50.877113
2022-12-03T00:13:42.748Z,50.877136
2022-12-03T00:14:44.803Z,50.877094
2022-12-03T00:15:43.747Z,50.877083
2022-12-03T00:16:42.713Z,50.877125
2022-12-03T00:17:42.752Z,50.877129
2022-12-03T00:18:42.719Z,50.877110
2022-12-03T00:19:42.721Z,50.877110
2022-12-03T00:20:42.669Z,50.877056
2022-12-03T00:21:42.673Z,50.877106
2022-12-03T00:22:42.669Z,50.877098
2022-12-03T00:23:42.685Z,50.877110
2022-12-03T00:24:42.686Z,50.877113
2022-12-03T00:25:42.638Z,50.877098
2022-12-03T00:26:42.640Z,50.877174
2022-12-03T00:27:42.619Z,50.877151
2022-12-03T00:28:42.614Z,50.877129
2022-12-03T00:29:42.606Z,50.877094
2022-12-03T00:30:42.629Z,50.877144
2022-12-03T00:31:42.649Z,50.877197
2022-12-03T00:32:42.596Z,50.877174
2022-12-03T00:33:42.559Z,50.877140
2022-12-03T00:34:42.552Z,50.877090
2022-12-03T00:35:42.540Z,50.877087
2022-12-03T00:36:42.530Z,50.877144
2022-12-03T00:37:42.665Z,50.877144
2022-12-03T00:38:42.516Z,50.877171
2022-12-03T00:39:42.498Z,50.877144
2022-12-03T00:40:42.554Z,50.877151
2022-12-03T00:41:42.492Z,50.877155
2022-12-03T00:42:42.521Z,50.877155
2022-12-03T00:43:42.475Z,50.877171
2022-12-03T00:44:42.457Z,50.877174
2022-12-03T00:45:42.458Z,50.877190
2022-12-03T00:46:42.480Z,50.877190
2022-12-03T00:47:42.452Z,50.877182
2022-12-03T00:48:42.420Z,50.877178
2022-12-03T00:49:42.404Z,50.877174
2022-12-03T00:50:42.395Z,50.877174
2022-12-03T00:51:42.384Z,50.877186
2022-12-03T00:52:42.415Z,50.877171
2022-12-03T00:53:42.361Z,50.877178
2022-12-03T00:54:42.353Z,50.877182
2022-12-03T00:55:42.339Z,50.877159
2022-12-03T00:56:42.339Z,50.877163
2022-12-03T00:57:42.344Z,50.877171
2022-12-03T00:58:42.355Z,50.877174
2022-12-03T00:59:42.307Z,50.877171
2022-12-03T01:00:42.291Z,50.877201
2022-12-03T01:01:42.318Z,50.877216
2022-12-03T01:02:42.281Z,50.877209
2022-12-03T01:03:42.326Z,50.877220
2022-12-03T01:04:42.300Z,50.877216
2022-12-03T01:05:42.249Z,50.877193
2022-12-03T01:06:42.245Z,50.877228
2022-12-03T01:07:42.288Z,50.877216
2022-12-03T01:08:42.235Z,50.877193
2022-12-03T01:09:42.244Z,50.877155
2022-12-03T01:10:42.195Z,50.877167
2022-12-03T01:11:42.195Z,50.877140
2022-12-03T01:12:42.180Z,50.877186
2022-12-03T01:13:42.161Z,50.877243
2022-12-03T01:14:42.181Z,50.877205
2022-12-03T01:15:42.228Z,50.877182
2022-12-03T01:16:42.127Z,50.877148
2022-12-03T01:17:42.119Z,50.877159
2022-12-03T01:18:42.126Z,50.877216
2022-12-03T01:19:46.654Z,50.877159
2022-12-03T01:20:44.097Z,50.877178
2022-12-03T01:21:42.089Z,50.877151
2022-12-03T01:22:42.105Z,50.877178
2022-12-03T01:23:42.065Z,50.877190
2022-12-03T01:24:42.056Z,50.877159
2022-12-03T01:25:42.049Z,50.877171
2022-12-03T01:26:42.049Z,50.877213
2022-12-03T01:27:42.057Z,50.877197
2022-12-03T01:28:42.084Z,50.877190
2022-12-03T01:29:42.014Z,50.877144
2022-12-03T01:30:41.987Z,50.877167
2022-12-03T01:31:42.054Z,50.877186
2022-12-03T01:32:42.082Z,50.877201
2022-12-03T01:33:41.963Z,50.877193
2022-12-03T01:34:41.972Z,50.877174
2022-12-03T01:35:41.951Z,50.877186
2022-12-03T01:36:41.940Z,50.877205
2022-12-03T01:37:41.935Z,50.877190
2022-12-03T01:38:41.934Z,50.877197
2022-12-03T01:39:41.921Z,50.877193
2022-12-03T01:40:41.914Z,50.877247
2022-12-03T01:41:41.887Z,50.877243
2022-12-03T01:42:42.941Z,50.877228
2022-12-03T01:43:41.871Z,50.877182
2022-12-03T01:44:41.874Z,50.877174
2022-12-03T01:45:41.862Z,50.877209
2022-12-03T01:46:41.903Z,50.877209
2022-12-03T01:47:41.866Z,50.877174
2022-12-03T01:48:41.844Z,50.877159
2022-12-03T01:49:41.823Z,50.877155
2022-12-03T01:50:41.816Z,50.877190
2022-12-03T01:51:41.799Z,50.877193
2022-12-03T01:52:41.823Z,50.877209
2022-12-03T01:53:41.784Z,50.877224
2022-12-03T01:54:41.775Z,50.877224
2022-12-03T01:55:44.505Z,50.877163
2022-12-03T01:56:41.765Z,50.877174
2022-12-03T01:57:41.754Z,50.877201
2022-12-03T01:58:41.761Z,50.877224
2022-12-03T01:59:41.730Z,50.877209
2022-12-03T02:00:41.718Z,50.877190
2022-12-03T02:01:41.752Z,50.877159
2022-12-03T02:02:41.697Z,50.877171
2022-12-03T02:03:41.720Z,50.877079
2022-12-03T02:04:41.682Z,50.877113
2022-12-03T02:05:41.684Z,50.877171
2022-12-03T02:06:41.667Z,50.877182
2022-12-03T02:07:41.693Z,50.877186
2022-12-03T02:08:41.659Z,50.877155
2022-12-03T02:09:41.628Z,50.877163
2022-12-03T02:10:41.622Z,50.877167
2022-12-03T02:11:41.605Z,50.877171
2022-12-03T02:12:41.633Z,50.877174
2022-12-03T02:13:41.575Z,50.877190
2022-12-03T02:14:41.585Z,50.877167
2022-12-03T02:15:41.603Z,50.877159
2022-12-03T02:16:41.657Z,50.877171
2022-12-03T02:17:41.578Z,50.877201
2022-12-03T02:18:41.547Z,50.877186
2022-12-03T02:19:41.532Z,50.877178
2022-12-03T02:20:41.523Z,50.877190
2022-12-03T02:21:41.523Z,50.877171
2022-12-03T02:22:41.519Z,50.877182
2022-12-03T02:23:41.525Z,50.877163
2022-12-03T02:24:41.505Z,50.877174
2022-12-03T02:25:41.491Z,50.877171
2022-12-03T02:26:41.471Z,50.877178
2022-12-03T02:27:41.458Z,50.877193
2022-12-03T02:28:41.477Z,50.877186
2022-12-03T02:29:41.440Z,50.877174
2022-12-03T02:30:41.434Z,50.877159
2022-12-03T02:31:41.478Z,50.877151
2022-12-03T02:32:41.415Z,50.877163
2022-12-03T02:33:41.418Z,50.877163
2022-12-03T02:34:41.409Z,50.877171
2022-12-03T02:35:41.413Z,50.877190
2022-12-03T02:36:41.389Z,50.877186
2022-12-03T02:37:41.368Z,50.877182
2022-12-03T02:38:41.354Z,50.877178
2022-12-03T02:39:41.348Z,50.877178
2022-12-03T02:40:41.351Z,50.877171
2022-12-03T02:41:41.337Z,50.877171
2022-12-03T02:42:41.317Z,50.877171
2022-12-03T02:43:41.304Z,50.877186
2022-12-03T02:44:41.333Z,50.877190
2022-12-03T02:45:41.294Z,50.877197
2022-12-03T02:46:41.341Z,50.877201
2022-12-03T02:47:41.256Z,50.877197
2022-12-03T02:48:41.250Z,50.877174
2022-12-03T02:49:41.273Z,50.877209
2022-12-03T02:50:41.249Z,50.877209
2022-12-03T02:51:41.236Z,50.877205
2022-12-03T02:52:41.233Z,50.877190
2022-12-03T02:53:41.230Z,50.877190
2022-12-03T02:54:41.212Z,50.877201
2022-12-03T02:56:13.087Z,50.877209
2022-12-03T02:56:41.173Z,50.877178
2022-12-03T02:57:41.166Z,50.877193
2022-12-03T02:58:41.207Z,50.877159
2022-12-03T02:59:41.157Z,50.877197
2022-12-03T03:00:41.203Z,50.877228
2022-12-03T03:01:41.333Z,50.877281
2022-12-03T03:02:41.167Z,50.877251
2022-12-03T03:03:41.131Z,50.877274
2022-12-03T03:04:41.110Z,50.877247
2022-12-03T03:05:41.094Z,50.877201
2022-12-03T03:06:41.069Z,50.877243
2022-12-03T03:07:41.102Z,50.877258
2022-12-03T03:08:41.070Z,50.877190
2022-12-03T03:09:41.035Z,50.877205
2022-12-03T03:10:41.036Z,50.877232
2022-12-03T03:11:41.051Z,50.877220
2022-12-03T03:12:41.026Z,50.877201
2022-12-03T03:13:41.022Z,50.877235
2022-12-03T03:14:41.003Z,50.877239
2022-12-03T03:15:40.980Z,50.877232
2022-12-03T03:16:41.004Z,50.877220
2022-12-03T03:17:40.983Z,50.877201
2022-12-03T03:18:40.955Z,50.877182
2022-12-03T03:19:40.926Z,50.877239
2022-12-03T03:20:40.936Z,50.877254
2022-12-03T03:21:40.926Z,50.877209
2022-12-03T03:22:40.927Z,50.877171
2022-12-03T03:23:40.903Z,50.877258
2022-12-03T03:24:40.888Z,50.877224
2022-12-03T03:25:40.910Z,50.877197
2022-12-03T03:26:40.899Z,50.877220
2022-12-03T03:27:40.877Z,50.877213
2022-12-03T03:28:40.848Z,50.877205
2022-12-03T03:29:40.852Z,50.877201
2022-12-03T03:30:40.886Z,50.877205
2022-12-03T03:31:40.879Z,50.877224
2022-12-03T03:32:40.815Z,50.877239
2022-12-03T03:33:40.824Z,50.877239
2022-12-03T03:34:40.798Z,50.877232
2022-12-03T03:35:40.787Z,50.877213
2022-12-03T03:36:40.785Z,50.877213
2022-12-03T03:37:40.790Z,50.877190
2022-12-03T03:38:40.756Z,50.877239
2022-12-03T03:39:40.785Z,50.877209
2022-12-03T03:40:40.735Z,50.877201
2022-12-03T03:41:40.736Z,50.877220
2022-12-03T03:42:40.744Z,50.877228
2022-12-03T03:43:40.722Z,50.877197
2022-12-03T03:44:40.714Z,50.877216
2022-12-03T03:45:40.726Z,50.877232
2022-12-03T03:46:40.686Z,50.877232
2022-12-03T03:47:40.689Z,50.877209
2022-12-03T03:48:40.699Z,50.877220
2022-12-03T03:49:40.645Z,50.877262
2022-12-03T03:50:40.643Z,50.877232
2022-12-03T03:51:40.627Z,50.877201
2022-12-03T03:52:40.641Z,50.877205
2022-12-03T03:53:40.620Z,50.877232
2022-12-03T03:54:40.622Z,50.877228
2022-12-03T03:55:40.605Z,50.877224
2022-12-03T03:56:40.593Z,50.877205
2022-12-03T03:57:40.609Z,50.877232
2022-12-03T03:58:40.602Z,50.877213
2022-12-03T03:59:40.576Z,50.877205
2022-12-03T04:00:40.564Z,50.877239
2022-12-03T04:01:40.613Z,50.877216
2022-12-03T04:02:40.529Z,50.877224
2022-12-03T04:03:40.580Z,50.877224
2022-12-03T04:04:40.607Z,50.877216
2022-12-03T04:05:40.527Z,50.877209
2022-12-03T04:06:40.545Z,50.877216
2022-12-03T04:07:40.531Z,50.877220
2022-12-03T04:08:40.478Z,50.877224
2022-12-03T04:09:40.469Z,50.877224
2022-12-03T04:10:40.457Z,50.877235
2022-12-03T04:11:40.451Z,50.877247
2022-12-03T04:12:40.444Z,50.877243
2022-12-03T04:13:40.424Z,50.877216
2022-12-03T04:14:40.443Z,50.877220
2022-12-03T04:15:40.410Z,50.877224
2022-12-03T04:16:40.473Z,50.877213
2022-12-03T04:17:40.394Z,50.877193
2022-12-03T04:18:40.407Z,50.877205
2022-12-03T04:19:40.384Z,50.877232
2022-12-03T04:20:40.371Z,50.877239
2022-12-03T04:21:40.358Z,50.877239
2022-12-03T04:22:40.363Z,50.877213
2022-12-03T04:23:40.341Z,50.877243
2022-12-03T04:24:40.328Z,50.877289
2022-12-03T04:25:40.326Z,50.877270
2022-12-03T04:26:40.311Z,50.877224
2022-12-03T04:27:40.304Z,50.877197
2022-12-03T04:28:40.290Z,50.877213
2022-12-03T04:29:40.323Z,50.877201
2022-12-03T04:30:40.357Z,50.877209
2022-12-03T04:31:40.260Z,50.877213
2022-12-03T04:32:40.248Z,50.877247
2022-12-03T04:33:40.227Z,50.877220
2022-12-03T04:34:40.262Z,50.877232
2022-12-03T04:35:40.302Z,50.877235
2022-12-03T04:36:40.207Z,50.877220
2022-12-03T04:37:40.217Z,50.877197
2022-12-03T04:38:40.191Z,50.877182
2022-12-03T04:39:40.175Z,50.877228
2022-12-03T04:40:40.186Z,50.877209
2022-12-03T04:41:40.158Z,50.877201
2022-12-03T04:42:40.152Z,50.877193
2022-12-03T04:43:40.192Z,50.877281
2022-12-03T04:44:40.197Z,50.877285
2022-12-03T04:45:40.183Z,50.877232
2022-12-03T04:46:40.113Z,50.877239
2022-12-03T04:47:40.233Z,50.877209
2022-12-03T04:48:41.107Z,50.877235
2022-12-03T04:49:40.099Z,50.877205
2022-12-03T04:50:40.076Z,50.877224
2022-12-03T04:51:40.094Z,50.877171
2022-12-03T04:52:40.065Z,50.877201
2022-12-03T04:53:45.932Z,50.877167
2022-12-03T04:54:41.035Z,50.877148
2022-12-03T04:55:41.034Z,50.877171
2022-12-03T04:56:40.009Z,50.877182
2022-12-03T04:57:40.006Z,50.877213
2022-12-03T04:58:40.014Z,50.877201
2022-12-03T04:59:40.000Z,50.877220
2022-12-03T05:00:39.992Z,50.877220
2022-12-03T05:01:40.039Z,50.877155
2022-12-03T05:02:40.075Z,50.877155
2022-12-03T05:03:39.947Z,50.877148
2022-12-03T05:04:39.943Z,50.877129
2022-12-03T05:05:39.906Z,50.877148
2022-12-03T05:06:39.939Z,50.877163
2022-12-03T05:07:39.932Z,50.877254
2022-12-03T05:08:39.879Z,50.877251
2022-12-03T05:09:39.893Z,50.877197
2022-12-03T05:10:39.879Z,50.877197
2022-12-03T05:11:39.885Z,50.877209
2022-12-03T05:12:39.853Z,50.877209
2022-12-03T05:13:39.847Z,50.877193
2022-12-03T05:14:39.824Z,50.877190
2022-12-03T05:15:39.837Z,50.877239
2022-12-03T05:16:39.842Z,50.877201
2022-12-03T05:17:39.825Z,50.877110
2022-12-03T05:18:39.786Z,50.877113
2022-12-03T05:19:39.792Z,50.877151
2022-12-03T05:20:39.772Z,50.877144
2022-12-03T05:21:39.774Z,50.877174
2022-12-03T05:22:39.764Z,50.877163
2022-12-03T05:23:39.746Z,50.877178
2022-12-03T05:24:39.732Z,50.877148
2022-12-03T05:25:39.718Z,50.877186
2022-12-03T05:26:39.716Z,50.877121
2022-12-03T05:27:39.732Z,50.877178
2022-12-03T05:28:39.679Z,50.877148
2022-12-03T05:29:39.684Z,50.877171
2022-12-03T05:30:39.701Z,50.877148
2022-12-03T05:31:39.672Z,50.877155
2022-12-03T05:32:39.677Z,50.877159
2022-12-03T05:33:43.899Z,50.877178
2022-12-03T05:34:40.667Z,50.877163
2022-12-03T05:35:39.633Z,50.877190
2022-12-03T05:36:39.616Z,50.877209
2022-12-03T05:37:39.623Z,50.877243
2022-12-03T05:38:40.589Z,50.877232
2022-12-03T05:39:39.578Z,50.877136
2022-12-03T05:40:39.583Z,50.877216
2022-12-03T05:41:39.568Z,50.877201
2022-12-03T05:42:39.551Z,50.877213
2022-12-03T05:43:39.543Z,50.877163
2022-12-03T05:44:39.583Z,50.877197
2022-12-03T05:45:39.549Z,50.877213
2022-12-03T05:46:39.578Z,50.877174
2022-12-03T05:47:39.516Z,50.877190
2022-12-03T05:48:39.538Z,50.877182
2022-12-03T05:49:39.475Z,50.877213
2022-12-03T05:50:39.501Z,50.877174
2022-12-03T05:51:39.492Z,50.877193
2022-12-03T05:52:39.451Z,50.877140
2022-12-03T05:53:39.477Z,50.877129
2022-12-03T05:54:39.436Z,50.877163
2022-12-03T05:55:39.441Z,50.877155
2022-12-03T05:56:39.432Z,50.877186
2022-12-03T05:57:39.408Z,50.877163
2022-12-03T05:58:39.414Z,50.877155
2022-12-03T05:59:39.400Z,50.877174
2022-12-03T06:00:42.777Z,50.877209
2022-12-03T06:01:40.377Z,50.877281
2022-12-03T06:02:39.456Z,50.877228
2022-12-03T06:03:39.502Z,50.877209
2022-12-03T06:04:39.342Z,50.877243
2022-12-03T06:05:39.342Z,50.877220
2022-12-03T06:06:39.348Z,50.877167
2022-12-03T06:07:39.357Z,50.877193
2022-12-03T06:08:39.304Z,50.877144
2022-12-03T06:09:39.296Z,50.877186
2022-12-03T06:10:39.304Z,50.877186
2022-12-03T06:11:39.297Z,50.877209
2022-12-03T06:12:39.276Z,50.877136
2022-12-03T06:13:39.256Z,50.877178
2022-12-03T06:14:39.254Z,50.877136
2022-12-03T06:15:43.705Z,50.877132
2022-12-03T06:16:40.265Z,50.877136
2022-12-03T06:17:39.230Z,50.877125
2022-12-03T06:18:39.214Z,50.877163
2022-12-03T06:19:39.246Z,50.877171
2022-12-03T06:20:39.183Z,50.877163
2022-12-03T06:21:39.195Z,50.877167
2022-12-03T06:22:39.180Z,50.877163
2022-12-03T06:23:39.158Z,50.877174
2022-12-03T06:24:39.169Z,50.877155
2022-12-03T06:25:39.131Z,50.877167
2022-12-03T06:26:39.119Z,50.877186
2022-12-03T06:27:39.131Z,50.877205
2022-12-03T06:28:39.112Z,50.877178
2022-12-03T06:29:39.123Z,50.877113
2022-12-03T06:30:39.096Z,50.877102
2022-12-03T06:31:39.132Z,50.877087
2022-12-03T06:32:39.069Z,50.877083
2022-12-03T06:33:39.064Z,50.877129
2022-12-03T06:34:39.082Z,50.877125
2022-12-03T06:35:39.061Z,50.877098
2022-12-03T06:36:39.027Z,50.877129
2022-12-03T06:37:39.120Z,50.877155
2022-12-03T06:38:39.027Z,50.877132
2022-12-03T06:39:39.002Z,50.877190
2022-12-03T06:40:38.997Z,50.877155
2022-12-03T06:41:39.010Z,50.877163
2022-12-03T06:42:38.977Z,50.877205
2022-12-03T06:43:38.959Z,50.877197
2022-12-03T06:44:38.973Z,50.877155
2022-12-03T06:45:42.129Z,50.877071
2022-12-03T06:46:39.998Z,50.877193
2022-12-03T06:47:38.963Z,50.877136
2022-12-03T06:48:38.920Z,50.877110
2022-12-03T06:49:38.927Z,50.877075
2022-12-03T06:50:38.904Z,50.877007
2022-12-03T06:51:38.905Z,50.876999
2022-12-03T06:52:38.878Z,50.877178
2022-12-03T06:53:38.908Z,50.877174
2022-12-03T06:54:38.871Z,50.877193
2022-12-03T06:55:38.850Z,50.877201
2022-12-03T06:56:44.831Z,50.877213
2022-12-03T06:57:40.840Z,50.877205
2022-12-03T06:58:38.837Z,50.877216
2022-12-03T06:59:38.803Z,50.877209
2022-12-03T07:00:38.821Z,50.877151
2022-12-03T07:01:38.859Z,50.877213
2022-12-03T07:02:38.811Z,50.877193
2022-12-03T07:03:38.811Z,50.877201
2022-12-03T07:04:42.145Z,50.877163
2022-12-03T07:05:40.757Z,50.877140
2022-12-03T07:06:38.760Z,50.877174
2022-12-03T07:07:38.792Z,50.877213
2022-12-03T07:08:38.714Z,50.877235
2022-12-03T07:09:38.738Z,50.877201
2022-12-03T07:10:38.728Z,50.877193
2022-12-03T07:11:38.706Z,50.877197
2022-12-03T07:12:38.687Z,50.877216
2022-12-03T07:13:38.714Z,50.877213
2022-12-03T07:14:38.678Z,50.877201
2022-12-03T07:15:38.680Z,50.877178
2022-12-03T07:16:38.715Z,50.877182
2022-12-03T07:17:38.648Z,50.877186
2022-12-03T07:18:38.632Z,50.877186
2022-12-03T07:19:38.619Z,50.877197
2022-12-03T07:20:38.606Z,50.877182
2022-12-03T07:21:38.659Z,50.877193
2022-12-03T07:22:38.616Z,50.877190
2022-12-03T07:23:38.591Z,50.877216
2022-12-03T07:24:38.594Z,50.877224
2022-12-03T07:25:38.576Z,50.877205
2022-12-03T07:26:38.564Z,50.877193
2022-12-03T07:27:38.560Z,50.877197
2022-12-03T07:28:38.539Z,50.877201
2022-12-03T07:29:39.536Z,50.877197
2022-12-03T07:30:38.520Z,50.877209
2022-12-03T07:31:38.610Z,50.877209
2022-12-03T07:32:38.520Z,50.877209
2022-12-03T07:33:38.531Z,50.877201
2022-12-03T07:34:38.496Z,50.877205
2022-12-03T07:35:38.481Z,50.877209
2022-12-03T07:36:38.462Z,50.877209
2022-12-03T07:37:38.456Z,50.877201
2022-12-03T07:38:38.477Z,50.877197
2022-12-03T07:39:38.441Z,50.877197
2022-12-03T07:40:38.420Z,50.877182
2022-12-03T07:41:38.422Z,50.877193
2022-12-03T07:42:38.439Z,50.877182
2022-12-03T07:43:38.396Z,50.877193
2022-12-03T07:44:38.404Z,50.877201
2022-12-03T07:45:38.370Z,50.877182
2022-12-03T07:46:38.436Z,50.877213
2022-12-03T07:47:38.352Z,50.877232
2022-12-03T07:48:38.369Z,50.877220
2022-12-03T07:49:38.352Z,50.877193
2022-12-03T07:50:38.339Z,50.877190
2022-12-03T07:51:38.346Z,50.877193
2022-12-03T07:52:38.329Z,50.877213
2022-12-03T07:53:38.319Z,50.877224
2022-12-03T07:54:38.298Z,50.877213
2022-12-03T07:55:38.291Z,50.877220
2022-12-03T07:56:38.267Z,50.877213
2022-12-03T07:57:38.306Z,50.877220
2022-12-03T07:58:38.241Z,50.877228
2022-12-03T07:59:38.243Z,50.877232
2022-12-03T08:00:38.297Z,50.877220
2022-12-03T08:01:38.342Z,50.877224
2022-12-03T08:02:38.333Z,50.877232
2022-12-03T08:03:38.209Z,50.877224
2022-12-03T08:04:38.348Z,50.877216
2022-12-03T08:05:38.205Z,50.877197
2022-12-03T08:06:38.168Z,50.877213
2022-12-03T08:07:38.216Z,50.877190
2022-12-03T08:08:38.156Z,50.877213
2022-12-03T08:09:38.144Z,50.877209
2022-12-03T08:10:38.163Z,50.877216
2022-12-03T08:11:38.118Z,50.877216
2022-12-03T08:12:38.123Z,50.877220
2022-12-03T08:13:38.107Z,50.877205
2022-12-03T08:14:38.095Z,50.877205
2022-12-03T08:15:39.717Z,50.877209
2022-12-03T08:16:39.188Z,50.877201
2022-12-03T08:17:38.205Z,50.877209
2022-12-03T08:18:38.149Z,50.877190
2022-12-03T08:19:38.062Z,50.877193
2022-12-03T08:20:38.162Z,50.877213
2022-12-03T08:21:38.056Z,50.877220
2022-12-03T08:22:38.027Z,50.877220
2022-12-03T08:23:38.049Z,50.877224
2022-12-03T08:24:37.996Z,50.877224
2022-12-03T08:25:37.991Z,50.877232
2022-12-03T08:26:38.002Z,50.877228
2022-12-03T08:27:37.973Z,50.877209
2022-12-03T08:28:37.966Z,50.877216
2022-12-03T08:29:37.956Z,50.877213
2022-12-03T08:30:37.950Z,50.877239
2022-12-03T08:31:37.994Z,50.877224
2022-12-03T08:32:37.932Z,50.877224
2022-12-03T08:33:37.927Z,50.877216
2022-12-03T08:34:37.925Z,50.877209
2022-12-03T08:35:37.891Z,50.877193
2022-12-03T08:36:37.882Z,50.877216
2022-12-03T08:37:37.878Z,50.877270
2022-12-03T08:38:37.876Z,50.877346
2022-12-03T08:39:37.962Z,50.877224
2022-12-03T08:40:37.891Z,50.877281
2022-12-03T08:41:37.833Z,50.877293
2022-12-03T08:42:37.839Z,50.877289
2022-12-03T08:43:38.014Z,50.877335
2022-12-03T08:44:37.830Z,50.877365
2022-12-03T08:45:37.860Z,50.877316
2022-12-03T08:46:37.793Z,50.877293
2022-12-03T08:47:37.789Z,50.877296
2022-12-03T08:48:37.785Z,50.877285
2022-12-03T08:49:37.804Z,50.877289
2022-12-03T08:50:37.747Z,50.877335
2022-12-03T08:51:37.768Z,50.877392
2022-12-03T08:52:37.903Z,50.877457
2022-12-03T08:53:37.725Z,50.877373
2022-12-03T08:54:37.721Z,50.877468
2022-12-03T08:56:09.620Z,50.877529
2022-12-03T08:56:37.689Z,50.877468
2022-12-03T08:57:37.686Z,50.877399
2022-12-03T08:58:37.690Z,50.877438
2022-12-03T08:59:39.423Z,50.877430
2022-12-03T09:00:37.688Z,50.877464
2022-12-03T09:01:37.732Z,50.877464
2022-12-03T09:02:37.638Z,50.877464
2022-12-03T09:03:37.696Z,50.877464
2022-12-03T09:04:37.733Z,50.877464
2022-12-03T09:05:37.612Z,50.877464
2022-12-03T09:06:37.646Z,50.877464
2022-12-03T09:07:37.649Z,50.877464
2022-12-03T09:08:37.592Z,50.877464
2022-12-03T09:09:37.578Z,50.877464
2022-12-03T09:10:37.571Z,50.877464
2022-12-03T09:11:37.559Z,50.876888
2022-12-03T09:12:37.561Z,50.877033
2022-12-03T09:13:37.539Z,50.877071
2022-12-03T09:14:37.535Z,50.877048
2022-12-03T09:15:37.524Z,50.877033
2022-12-03T09:16:37.586Z,50.876987
2022-12-03T09:17:37.537Z,50.877113
2022-12-03T09:18:37.520Z,50.877087
2022-12-03T09:19:42.757Z,50.877003
2022-12-03T09:20:39.477Z,50.877007
2022-12-03T09:21:37.463Z,50.877068
2022-12-03T09:22:37.516Z,50.876995
2022-12-03T09:23:37.433Z,50.877060
2022-12-03T09:24:37.442Z,50.877094
2022-12-03T09:25:37.447Z,50.877201
2022-12-03T09:26:37.413Z,50.877140
2022-12-03T09:27:37.394Z,50.877136
2022-12-03T09:28:37.500Z,50.877060
2022-12-03T09:29:37.390Z,50.877014
2022-12-03T09:30:37.363Z,50.877064
2022-12-03T09:31:37.390Z,50.877052
2022-12-03T09:32:37.364Z,50.877155
2022-12-03T09:33:37.385Z,50.877163
2022-12-03T09:34:37.338Z,50.877087
2022-12-03T09:35:37.324Z,50.877090
2022-12-03T09:36:37.317Z,50.877068
2022-12-03T09:37:37.303Z,50.877052
2022-12-03T09:38:37.306Z,50.876980
2022-12-03T09:39:37.313Z,50.877098
2022-12-03T09:40:37.307Z,50.877144
2022-12-03T09:41:37.260Z,50.877228
2022-12-03T09:42:37.263Z,50.877228
2022-12-03T09:44:02.605Z,50.877228
2022-12-03T09:44:38.309Z,50.877228
2022-12-03T09:45:37.266Z,50.877228
2022-12-03T09:46:37.281Z,50.877228
2022-12-03T09:47:37.195Z,50.877228
2022-12-03T09:48:37.201Z,50.877216
2022-12-03T09:49:37.197Z,50.877117
2022-12-03T09:50:37.231Z,50.877110
2022-12-03T09:51:37.178Z,50.877110
2022-12-03T09:52:37.165Z,50.877110
2022-12-03T09:53:41.235Z,50.876934
2022-12-03T09:54:41.562Z,50.876968
2022-12-03T09:55:37.143Z,50.877274
2022-12-03T09:56:37.127Z,50.877148
2022-12-03T09:57:37.140Z,50.877090
2022-12-03T09:58:37.100Z,50.877171
2022-12-03T09:59:37.092Z,50.877171
2022-12-03T10:00:37.076Z,50.877171
2022-12-03T10:01:37.187Z,50.877171
2022-12-03T10:02:37.087Z,50.877171
2022-12-03T10:03:37.081Z,50.877171
2022-12-03T10:04:37.113Z,50.877171
2022-12-03T10:05:37.046Z,50.877171
2022-12-03T10:06:39.876Z,50.877171
2022-12-03T10:07:39.110Z,50.877171
2022-12-03T10:08:37.023Z,50.877171
2022-12-03T10:09:36.991Z,50.877171
2022-12-03T10:10:36.992Z,50.877171
2022-12-03T10:11:36.978Z,50.877171
2022-12-03T10:12:36.975Z,50.877171
2022-12-03T10:13:36.968Z,50.877304
2022-12-03T10:14:36.992Z,50.877220
2022-12-03T10:15:36.936Z,50.877197
2022-12-03T10:16:36.983Z,50.877121
2022-12-03T10:17:36.913Z,50.877125
2022-12-03T10:18:41.468Z,50.877125
2022-12-03T10:19:37.914Z,50.877144
2022-12-03T10:20:36.878Z,50.877159
2022-12-03T10:21:36.915Z,50.877136
2022-12-03T10:22:36.867Z,50.877190
2022-12-03T10:23:36.852Z,50.877106
2022-12-03T10:24:36.869Z,50.877136
2022-12-03T10:25:36.835Z,50.877186
2022-12-03T10:26:36.825Z,50.877171
2022-12-03T10:27:36.811Z,50.877106
2022-12-03T10:28:36.810Z,50.877041
2022-12-03T10:29:36.809Z,50.877155
2022-12-03T10:30:36.877Z,50.877132
2022-12-03T10:31:36.775Z,50.877167
2022-12-03T10:32:36.783Z,50.877167
2022-12-03T10:33:36.775Z,50.877151
2022-12-03T10:34:36.738Z,50.877151
2022-12-03T10:35:36.741Z,50.877113
2022-12-03T10:36:36.737Z,50.877117
2022-12-03T10:37:36.742Z,50.877239
2022-12-03T10:38:36.715Z,50.877220
2022-12-03T10:39:36.706Z,50.877205
2022-12-03T10:40:36.683Z,50.877171
2022-12-03T10:41:36.770Z,50.877186
2022-12-03T10:42:36.683Z,50.877186
2022-12-03T10:43:36.679Z,50.877193
2022-12-03T10:44:36.672Z,50.877132
2022-12-03T10:45:36.646Z,50.877186
2022-12-03T10:46:36.844Z,50.877201
2022-12-03T10:47:36.827Z,50.877174
2022-12-03T10:48:36.647Z,50.877110
2022-12-03T10:49:36.617Z,50.877174
2022-12-03T10:50:36.606Z,50.877239
2022-12-03T10:51:36.592Z,50.877235
2022-12-03T10:52:36.584Z,50.877254
2022-12-03T10:53:36.599Z,50.877254
2022-12-03T10:54:36.559Z,50.877254
2022-12-03T10:55:36.558Z,50.877254
2022-12-03T10:56:36.567Z,50.877254
2022-12-03T10:57:39.922Z,50.877270
2022-12-03T10:58:37.527Z,50.877228
2022-12-03T10:59:36.530Z,50.877186
2022-12-03T11:00:36.511Z,50.877193
2022-12-03T11:01:36.579Z,50.877201
2022-12-03T11:02:36.499Z,50.877205
2022-12-03T11:03:36.588Z,50.877197
2022-12-03T11:04:36.473Z,50.877213
2022-12-03T11:05:36.505Z,50.877197
2022-12-03T11:06:36.452Z,50.877190
2022-12-03T11:07:36.481Z,50.877171
2022-12-03T11:08:36.458Z,50.877178
2022-12-03T11:09:36.416Z,50.877201
2022-12-03T11:10:36.406Z,50.877201
2022-12-03T11:11:36.405Z,50.877190
2022-12-03T11:12:36.390Z,50.877178
2022-12-03T11:13:36.382Z,50.877190
2022-12-03T11:14:36.392Z,50.877171
2022-12-03T11:15:36.408Z,50.877163
2022-12-03T11:16:36.355Z,50.877205
2022-12-03T11:17:36.397Z,50.877190
2022-12-03T11:18:36.363Z,50.877209
2022-12-03T11:19:36.346Z,50.877228
2022-12-03T11:20:36.321Z,50.877235
2022-12-03T11:21:36.309Z,50.877243
2022-12-03T11:22:36.287Z,50.877232
2022-12-03T11:23:36.282Z,50.877251
2022-12-03T11:24:36.294Z,50.877228